createdAt,value
2018-11-03T00:01:50.175Z,15.73
2018-11-03T00:04:17.603Z,16.47
2018-11-03T00:06:45.022Z,14.10
2018-11-03T00:09:12.449Z,15.23
2018-11-03T00:11:39.870Z,16.53
2018-11-03T00:14:07.284Z,13.03
2018-11-03T00:16:34.737Z,13.70
2018-11-03T00:19:02.154Z,14.20
2018-11-03T00:21:29.579Z,14.57
2018-11-03T00:23:56.978Z,14.27
2018-11-03T00:26:24.403Z,12.63
2018-11-03T00:28:51.843Z,16.80
2018-11-03T00:31:19.243Z,18.07
2018-11-03T00:33:46.647Z,14.07
2018-11-03T00:36:14.073Z,14.87
2018-11-03T00:38:41.525Z,19.93
2018-11-03T00:41:08.937Z,18.07
2018-11-03T00:43:36.341Z,17.77
2018-11-03T00:46:03.756Z,17.17
2018-11-03T00:48:31.156Z,16.57
2018-11-03T00:50:58.570Z,16.17
2018-11-03T00:53:25.963Z,19.40
2018-11-03T00:55:53.375Z,23.73
2018-11-03T00:58:20.790Z,18.60
2018-11-03T01:00:48.215Z,17.07
2018-11-03T01:03:15.634Z,16.30
2018-11-03T01:05:43.076Z,18.50
2018-11-03T01:08:10.511Z,20.03
2018-11-03T01:10:37.908Z,16.07
2018-11-03T01:13:05.337Z,18.23
2018-11-03T01:15:32.733Z,16.50
2018-11-03T01:18:00.154Z,16.23
2018-11-03T01:20:27.594Z,22.10
2018-11-03T01:22:54.986Z,19.00
2018-11-03T01:25:22.418Z,19.40
2018-11-03T01:27:49.857Z,15.67
2018-11-03T01:30:17.254Z,20.07
2018-11-03T01:32:44.761Z,18.50
2018-11-03T01:35:12.099Z,23.10
2018-11-03T01:37:39.526Z,18.40
2018-11-03T01:40:06.913Z,16.67
2018-11-03T01:42:35.567Z,17.93
2018-11-03T01:45:02.965Z,19.27
2018-11-03T01:47:30.388Z,18.23
2018-11-03T01:49:57.831Z,19.03
2018-11-03T01:52:25.278Z,17.07
2018-11-03T01:54:52.679Z,17.50
2018-11-03T01:57:20.088Z,15.40
2018-11-03T01:59:47.511Z,13.13
2018-11-03T02:02:14.892Z,19.23
2018-11-03T02:04:42.339Z,20.73
2018-11-03T02:07:09.731Z,17.20
2018-11-03T02:09:37.153Z,17.87
2018-11-03T02:12:04.619Z,19.37
2018-11-03T02:14:32.074Z,19.00
2018-11-03T02:16:59.468Z,21.70
2018-11-03T02:19:26.890Z,20.07
2018-11-03T02:21:54.306Z,25.07
2018-11-03T02:24:21.734Z,28.67
2018-11-03T02:26:49.162Z,28.57
2018-11-03T02:29:16.592Z,23.60
2018-11-03T02:31:44.000Z,26.77
2018-11-03T02:34:11.411Z,19.70
2018-11-03T02:36:38.846Z,18.50
2018-11-03T02:39:06.262Z,19.87
2018-11-03T02:41:33.676Z,22.60
2018-11-03T02:44:01.099Z,19.83
2018-11-03T02:46:28.517Z,22.87
2018-11-03T02:48:55.934Z,21.63
2018-11-03T02:51:23.339Z,20.43
2018-11-03T02:53:50.781Z,22.70
2018-11-03T02:56:18.170Z,19.93
2018-11-03T02:58:45.604Z,20.03
2018-11-03T03:01:13.018Z,23.43
2018-11-03T03:03:40.416Z,21.20
2018-11-03T03:06:07.925Z,18.17
2018-11-03T03:08:35.264Z,17.23
2018-11-03T03:11:02.688Z,18.33
2018-11-03T03:13:30.110Z,15.73
2018-11-03T03:15:57.520Z,15.87
2018-11-03T03:18:24.933Z,15.57
2018-11-03T03:20:52.339Z,16.27
2018-11-03T03:23:19.766Z,15.63
2018-11-03T03:25:47.165Z,15.10
2018-11-03T03:28:14.609Z,15.37
2018-11-03T03:30:42.023Z,15.97
2018-11-03T03:33:09.449Z,19.03
2018-11-03T03:35:36.887Z,18.83
2018-11-03T03:38:04.302Z,17.97
2018-11-03T03:40:31.692Z,19.93
2018-11-03T03:42:59.138Z,21.27
2018-11-03T03:45:26.547Z,18.93
2018-11-03T03:47:53.962Z,19.37
2018-11-03T03:50:21.366Z,25.63
2018-11-03T03:52:48.769Z,23.87
2018-11-03T03:55:16.211Z,19.30
2018-11-03T03:57:43.619Z,19.63
2018-11-03T04:00:11.038Z,17.23
2018-11-03T04:02:38.442Z,16.90
2018-11-03T04:05:05.869Z,13.97
2018-11-03T04:07:33.256Z,19.53
2018-11-03T04:10:00.676Z,18.77
2018-11-03T04:12:28.068Z,15.97
2018-11-03T04:14:55.638Z,17.27
2018-11-03T04:17:23.010Z,18.70
2018-11-03T04:19:50.418Z,13.90
2018-11-03T04:22:17.819Z,12.40
2018-11-03T04:24:45.309Z,16.53
2018-11-03T04:27:12.731Z,13.80
2018-11-03T04:29:40.161Z,13.10
2018-11-03T04:32:07.576Z,11.80
2018-11-03T04:34:34.975Z,13.90
2018-11-03T04:37:02.405Z,13.87
2018-11-03T04:39:29.820Z,13.60
2018-11-03T04:41:57.246Z,17.43
2018-11-03T04:44:24.636Z,16.53
2018-11-03T04:46:52.060Z,26.47
2018-11-03T04:49:19.457Z,19.73
2018-11-03T04:51:46.868Z,20.80
2018-11-03T04:54:14.275Z,24.57
2018-11-03T04:56:41.677Z,18.90
2018-11-03T04:59:09.112Z,20.53
2018-11-03T05:01:36.497Z,21.27
2018-11-03T05:04:03.905Z,23.83
2018-11-03T05:06:31.345Z,26.30
2018-11-03T05:08:58.725Z,32.67
2018-11-03T05:11:26.152Z,27.70
2018-11-03T05:13:53.570Z,23.07
2018-11-03T05:16:20.954Z,28.17
2018-11-03T05:18:48.366Z,24.23
2018-11-03T05:21:15.849Z,28.80
2018-11-03T05:23:43.186Z,21.33
2018-11-03T05:26:10.602Z,28.13
2018-11-03T05:28:37.982Z,26.80
2018-11-03T05:31:05.430Z,29.23
2018-11-03T05:33:32.819Z,27.60
2018-11-03T05:36:00.217Z,32.30
2018-11-03T05:38:27.608Z,28.60
2018-11-03T05:40:55.045Z,29.80
2018-11-03T05:43:22.426Z,30.23
2018-11-03T05:45:49.837Z,27.93
2018-11-03T05:48:17.230Z,27.10
2018-11-03T05:50:44.662Z,29.07
2018-11-03T05:53:12.056Z,33.53
2018-11-03T05:55:39.482Z,26.20
2018-11-03T05:58:06.876Z,25.70
2018-11-03T06:00:34.295Z,22.27
2018-11-03T06:03:01.691Z,26.43
2018-11-03T06:05:29.117Z,18.80
2018-11-03T06:07:56.544Z,22.20
2018-11-03T06:10:23.945Z,22.13
2018-11-03T06:12:51.340Z,23.13
2018-11-03T06:15:18.813Z,28.00
2018-11-03T06:17:46.152Z,30.47
2018-11-03T06:20:13.544Z,26.87
2018-11-03T06:22:41.092Z,21.30
2018-11-03T06:25:08.378Z,27.60
2018-11-03T06:27:35.776Z,21.53
2018-11-03T06:30:03.210Z,24.83
2018-11-03T06:32:30.599Z,31.57
2018-11-03T06:34:59.279Z,30.23
2018-11-03T06:37:26.670Z,33.43
2018-11-03T06:39:54.085Z,27.00
2018-11-03T06:42:21.498Z,31.70
2018-11-03T06:44:48.899Z,30.63
2018-11-03T06:47:16.356Z,30.57
2018-11-03T06:49:43.741Z,30.90
2018-11-03T06:52:11.221Z,30.70
2018-11-03T06:54:38.555Z,35.83
2018-11-03T06:57:05.986Z,29.77
2018-11-03T06:59:33.414Z,31.30
2018-11-03T07:02:00.836Z,27.83
2018-11-03T07:04:28.247Z,31.43
2018-11-03T07:06:55.638Z,28.90
2018-11-03T07:09:23.091Z,28.03
2018-11-03T07:11:50.461Z,30.43
2018-11-03T07:14:17.849Z,26.40
2018-11-03T07:16:45.279Z,24.60
2018-11-03T07:19:12.691Z,31.00
2018-11-03T07:21:40.242Z,29.37
2018-11-03T07:24:07.524Z,30.13
2018-11-03T07:26:34.927Z,24.23
2018-11-03T07:29:02.350Z,31.07
2018-11-03T07:31:29.758Z,27.53
2018-11-03T07:33:57.172Z,33.83
2018-11-03T07:36:24.600Z,24.97
2018-11-03T07:38:52.033Z,31.83
2018-11-03T07:41:19.477Z,31.07
2018-11-03T07:43:46.837Z,34.97
2018-11-03T07:46:14.240Z,30.43
2018-11-03T07:48:41.783Z,30.13
2018-11-03T07:51:09.169Z,30.20
2018-11-03T07:53:36.569Z,29.63
2018-11-03T07:56:04.016Z,32.33
2018-11-03T07:58:31.435Z,29.90
2018-11-03T08:00:58.838Z,34.50
2018-11-03T08:03:26.273Z,45.50
2018-11-03T08:05:53.679Z,33.60
2018-11-03T08:08:21.108Z,39.03
2018-11-03T08:10:48.556Z,32.37
2018-11-03T08:13:16.402Z,28.87
2018-11-03T08:15:43.834Z,35.03
2018-11-03T08:18:11.243Z,24.87
2018-11-03T08:20:38.692Z,35.90
2018-11-03T08:23:06.099Z,39.23
2018-11-03T08:25:35.845Z,35.10
2018-11-03T08:28:00.945Z,33.50
2018-11-03T08:30:28.383Z,37.47
2018-11-03T08:32:55.779Z,32.47
2018-11-03T08:35:23.210Z,29.33
2018-11-03T08:37:50.617Z,34.27
2018-11-03T08:40:19.113Z,35.90
2018-11-03T08:42:45.490Z,32.53
2018-11-03T08:45:12.971Z,42.53
2018-11-03T08:47:40.395Z,36.97
2018-11-03T08:50:07.805Z,40.83
2018-11-03T08:52:35.342Z,44.27
2018-11-03T08:55:02.741Z,34.93
2018-11-03T08:57:30.176Z,41.73
2018-11-03T08:59:57.770Z,33.07
2018-11-03T09:02:25.039Z,42.13
2018-11-03T09:04:52.419Z,46.00
2018-11-03T09:07:19.916Z,44.93
2018-11-03T09:09:47.340Z,43.23
2018-11-03T09:12:14.793Z,36.07
2018-11-03T09:14:42.253Z,38.07
2018-11-03T09:17:09.632Z,38.27
2018-11-03T09:19:37.094Z,34.27
2018-11-03T09:22:04.487Z,38.77
2018-11-03T09:24:31.941Z,38.63
2018-11-03T09:26:59.352Z,39.10
2018-11-03T09:29:26.795Z,36.67
2018-11-03T09:31:54.226Z,38.57
2018-11-03T09:34:21.768Z,43.60
2018-11-03T09:36:49.181Z,35.07
2018-11-03T09:39:16.704Z,37.93
2018-11-03T09:41:44.021Z,35.70
2018-11-03T09:44:11.460Z,31.57
2018-11-03T09:46:38.863Z,35.90
2018-11-03T09:49:06.290Z,36.13
2018-11-03T09:51:33.758Z,29.00
2018-11-03T09:54:01.333Z,34.10
2018-11-03T09:56:28.912Z,34.00
2018-11-03T09:58:56.293Z,32.10
2018-11-03T10:01:23.735Z,33.17
2018-11-03T10:03:51.159Z,42.33
2018-11-03T10:06:18.591Z,31.30
2018-11-03T10:08:46.003Z,32.73
2018-11-03T10:11:13.417Z,30.17
2018-11-03T10:13:40.831Z,27.40
2018-11-03T10:16:08.350Z,29.53
2018-11-03T10:18:35.680Z,28.50
2018-11-03T10:21:03.084Z,27.70
2018-11-03T10:23:30.489Z,28.57
2018-11-03T10:25:57.912Z,26.37
2018-11-03T10:28:25.325Z,30.37
2018-11-03T10:30:52.775Z,23.60
2018-11-03T10:33:20.171Z,30.37
2018-11-03T10:35:47.559Z,27.10
2018-11-03T10:38:15.032Z,28.73
2018-11-03T10:40:42.475Z,26.23
2018-11-03T10:43:09.928Z,26.53
2018-11-03T10:45:37.387Z,23.33
2018-11-03T10:48:04.746Z,27.17
2018-11-03T10:50:32.190Z,20.77
2018-11-03T10:52:59.593Z,22.93
2018-11-03T10:55:27.022Z,18.13
2018-11-03T10:57:54.420Z,18.67
2018-11-03T11:00:21.917Z,19.30
2018-11-03T11:02:51.920Z,18.97
2018-11-03T11:05:37.352Z,17.60
2018-11-03T11:08:04.806Z,19.73
2018-11-03T11:10:32.217Z,20.80
2018-11-03T11:12:59.621Z,17.20
2018-11-03T11:15:27.036Z,18.23
2018-11-03T11:17:54.458Z,20.33
2018-11-03T11:20:21.851Z,20.83
2018-11-03T11:22:49.295Z,22.13
2018-11-03T11:25:16.735Z,19.30
2018-11-03T11:27:44.151Z,18.20
2018-11-03T11:30:11.554Z,13.87
2018-11-03T11:32:38.971Z,11.77
2018-11-03T11:35:06.357Z,15.80
2018-11-03T11:37:33.872Z,14.07
2018-11-03T11:40:01.245Z,13.83
2018-11-03T11:42:28.610Z,14.20
2018-11-03T11:44:56.025Z,13.00
2018-11-03T11:47:23.427Z,12.70
2018-11-03T11:49:50.865Z,13.27
2018-11-03T11:52:18.273Z,11.10
2018-11-03T11:54:45.701Z,13.47
2018-11-03T11:57:13.113Z,12.70
2018-11-03T11:59:40.516Z,12.80
2018-11-03T12:02:07.928Z,12.77
2018-11-03T12:04:35.347Z,9.37
2018-11-03T12:07:02.761Z,9.13
2018-11-03T12:09:30.492Z,7.57
2018-11-03T12:11:57.902Z,6.97
2018-11-03T12:14:25.315Z,5.10
2018-11-03T12:16:52.726Z,7.40
2018-11-03T12:19:20.122Z,8.50
2018-11-03T12:21:47.547Z,7.47
2018-11-03T12:24:14.957Z,8.23
2018-11-03T12:26:42.367Z,6.50
2018-11-03T12:29:09.758Z,8.70
2018-11-03T12:31:37.175Z,7.57
2018-11-03T12:34:04.579Z,5.87
2018-11-03T12:36:32.012Z,7.07
2018-11-03T12:38:59.420Z,7.93
2018-11-03T12:41:26.872Z,7.10
2018-11-03T12:43:54.281Z,9.13
2018-11-03T12:46:21.729Z,6.33
2018-11-03T12:48:49.152Z,5.33
2018-11-03T12:51:36.181Z,8.80
2018-11-03T12:54:03.618Z,10.23
2018-11-03T12:56:31.032Z,9.17
2018-11-03T12:58:58.477Z,8.57
2018-11-03T13:01:25.859Z,6.73
2018-11-03T13:03:53.294Z,6.60
2018-11-03T13:06:20.696Z,8.73
2018-11-03T13:08:48.138Z,5.30
2018-11-03T13:11:15.520Z,7.47
2018-11-03T13:13:42.936Z,7.17
2018-11-03T13:16:10.416Z,7.73
2018-11-03T13:18:37.852Z,8.30
2018-11-03T13:21:05.271Z,9.77
2018-11-03T13:23:32.665Z,6.50
2018-11-03T13:26:00.141Z,5.70
2018-11-03T13:28:28.419Z,8.57
2018-11-03T13:30:55.853Z,7.57
2018-11-03T13:33:23.269Z,5.53
2018-11-03T13:35:50.720Z,6.43
2018-11-03T13:38:18.126Z,5.17
2018-11-03T13:40:45.619Z,5.40
2018-11-03T13:43:12.952Z,4.73
2018-11-03T13:45:40.338Z,6.00
2018-11-03T13:48:07.769Z,5.10
2018-11-03T13:50:35.160Z,5.17
2018-11-03T13:53:02.589Z,7.20
2018-11-03T13:55:29.996Z,6.90
2018-11-03T13:57:57.441Z,7.03
2018-11-03T14:00:25.995Z,9.70
2018-11-03T14:02:53.423Z,7.17
2018-11-03T14:05:20.817Z,10.07
2018-11-03T14:07:48.243Z,5.87
2018-11-03T14:10:15.666Z,6.43
2018-11-03T14:12:43.053Z,5.73
2018-11-03T14:15:10.575Z,7.60
2018-11-03T14:17:37.920Z,5.67
2018-11-03T14:20:05.362Z,8.77
2018-11-03T14:22:32.759Z,8.33
2018-11-03T14:25:02.341Z,7.83
2018-11-03T14:27:27.689Z,5.87
2018-11-03T14:29:55.081Z,6.40
2018-11-03T14:32:22.534Z,5.07
2018-11-03T14:34:49.917Z,7.50
2018-11-03T14:37:17.315Z,8.67
2018-11-03T14:39:44.757Z,7.00
2018-11-03T14:42:12.150Z,8.77
2018-11-03T14:44:39.623Z,8.50
2018-11-03T14:47:06.972Z,9.77
2018-11-03T14:49:34.398Z,10.37
2018-11-03T14:52:01.817Z,14.73
2018-11-03T14:54:29.272Z,10.43
2018-11-03T14:56:56.689Z,9.17
2018-11-03T14:59:24.117Z,8.27
2018-11-03T15:01:51.511Z,8.47
2018-11-03T15:04:18.910Z,10.43
2018-11-03T15:06:46.335Z,10.47
2018-11-03T15:09:13.756Z,8.00
2018-11-03T15:11:41.184Z,9.03
2018-11-03T15:14:08.771Z,9.50
2018-11-03T15:16:36.004Z,9.70
2018-11-03T15:19:03.428Z,13.07
2018-11-03T15:21:30.829Z,10.30
2018-11-03T15:23:58.265Z,11.57
2018-11-03T15:26:25.676Z,12.57
2018-11-03T15:28:53.111Z,9.63
2018-11-03T15:31:20.496Z,10.93
2018-11-03T15:33:47.909Z,10.00
2018-11-03T15:36:15.306Z,14.97
2018-11-03T15:38:42.730Z,11.90
2018-11-03T15:41:10.194Z,14.10
2018-11-03T15:43:37.573Z,12.90
2018-11-03T15:46:04.979Z,11.57
2018-11-03T15:48:32.395Z,18.03
2018-11-03T15:50:59.848Z,13.23
2018-11-03T15:53:27.221Z,14.40
2018-11-03T15:55:54.615Z,14.80
2018-11-03T15:58:22.072Z,12.70
2018-11-03T16:00:49.470Z,16.53
2018-11-03T16:03:16.912Z,15.80
2018-11-03T16:05:44.320Z,10.67
2018-11-03T16:08:11.745Z,14.10
2018-11-03T16:10:39.150Z,13.37
2018-11-03T16:13:06.620Z,13.03
2018-11-03T16:15:33.980Z,15.97
2018-11-03T16:18:01.385Z,15.70
2018-11-03T16:20:28.839Z,17.30
2018-11-03T16:22:56.256Z,13.63
2018-11-03T16:25:23.691Z,17.60
2018-11-03T16:27:51.138Z,12.07
2018-11-03T16:30:18.556Z,17.50
2018-11-03T16:32:45.978Z,13.13
2018-11-03T16:35:13.374Z,12.83
2018-11-03T16:37:40.785Z,12.43
2018-11-03T16:40:08.214Z,12.20
2018-11-03T16:42:35.673Z,16.03
2018-11-03T16:45:03.119Z,10.67
2018-11-03T16:47:30.513Z,13.63
2018-11-03T16:49:57.957Z,15.27
2018-11-03T16:52:25.438Z,13.77
2018-11-03T16:54:52.792Z,14.40
2018-11-03T16:57:20.193Z,11.20
2018-11-03T16:59:47.625Z,11.70
2018-11-03T17:02:15.026Z,14.17
2018-11-03T17:04:42.442Z,13.30
2018-11-03T17:07:09.835Z,14.97
2018-11-03T17:09:37.252Z,14.93
2018-11-03T17:12:04.684Z,13.73
2018-11-03T17:14:32.112Z,13.40
2018-11-03T17:16:59.513Z,15.53
2018-11-03T17:19:26.928Z,12.30
2018-11-03T17:21:55.380Z,14.87
2018-11-03T17:24:22.803Z,16.80
2018-11-03T17:26:50.198Z,15.73
2018-11-03T17:29:17.638Z,17.07
2018-11-03T17:31:46.366Z,13.77
2018-11-03T17:34:13.782Z,12.27
2018-11-03T17:36:41.176Z,14.10
2018-11-03T17:39:10.288Z,13.03
2018-11-03T17:41:37.589Z,10.83
2018-11-03T17:44:04.995Z,13.23
2018-11-03T17:46:32.434Z,10.70
2018-11-03T17:48:59.830Z,12.17
2018-11-03T17:51:28.548Z,12.53
2018-11-03T17:53:57.263Z,15.90
2018-11-03T17:56:24.810Z,13.80
2018-11-03T17:58:52.236Z,17.47
2018-11-03T18:01:19.769Z,14.77
2018-11-03T18:03:47.052Z,18.10
2018-11-03T18:06:14.494Z,21.30
2018-11-03T18:08:42.672Z,15.40
2018-11-03T18:11:10.139Z,18.83
2018-11-03T18:13:37.597Z,19.53
2018-11-03T18:16:04.996Z,20.77
2018-11-03T18:18:32.407Z,16.23
2018-11-03T18:20:59.838Z,18.53
2018-11-03T18:23:27.232Z,17.23
2018-11-03T18:25:54.725Z,16.57
2018-11-03T18:28:25.067Z,17.10
2018-11-03T18:30:52.555Z,19.63
2018-11-03T18:33:20.061Z,17.53
2018-11-03T18:35:47.359Z,14.57
2018-11-03T18:38:14.767Z,18.97
2018-11-03T18:40:42.167Z,20.63
2018-11-03T18:43:09.620Z,16.37
2018-11-03T18:45:37.020Z,18.70
2018-11-03T18:48:04.446Z,18.10
2018-11-03T18:50:31.891Z,19.83
2018-11-03T18:52:59.357Z,21.07
2018-11-03T18:55:26.763Z,20.67
2018-11-03T18:57:54.233Z,23.10
2018-11-03T19:00:21.625Z,21.97
2018-11-03T19:02:49.090Z,34.77
2018-11-03T19:05:16.497Z,30.00
2018-11-03T19:07:43.951Z,52.60
2018-11-03T19:10:14.024Z,38.73
2018-11-03T19:12:41.419Z,46.40
2018-11-03T19:15:08.837Z,43.40
2018-11-03T19:17:36.240Z,39.80
2018-11-03T19:20:03.673Z,34.50
2018-11-03T19:22:31.101Z,35.77
2018-11-03T19:24:59.722Z,36.97
2018-11-03T19:27:27.229Z,36.73
2018-11-03T19:29:54.737Z,38.20
2018-11-03T19:32:22.073Z,29.67
2018-11-03T19:34:49.470Z,27.03
2018-11-03T19:37:16.893Z,25.33
2018-11-03T19:39:44.445Z,26.07
2018-11-03T19:42:11.835Z,30.10
2018-11-03T19:44:39.371Z,31.10
2018-11-03T19:47:06.828Z,26.43
2018-11-03T19:49:34.265Z,22.47
2018-11-03T19:52:01.696Z,25.77
2018-11-03T19:54:29.094Z,21.70
2018-11-03T19:56:56.485Z,28.73
2018-11-03T19:59:23.918Z,26.10
2018-11-03T20:01:51.362Z,26.93
2018-11-03T20:04:18.806Z,28.93
2018-11-03T20:06:46.212Z,26.03
2018-11-03T20:09:13.692Z,26.23
2018-11-03T20:11:41.098Z,25.80
2018-11-03T20:14:10.094Z,26.27
2018-11-03T20:16:35.905Z,30.03
2018-11-03T20:19:08.460Z,27.57
2018-11-03T20:21:35.970Z,24.90
2018-11-03T20:24:03.340Z,25.50
2018-11-03T20:26:30.761Z,24.00
2018-11-03T20:28:58.198Z,33.67
2018-11-03T20:31:25.654Z,36.10
2018-11-03T20:33:53.145Z,27.80
2018-11-03T20:36:20.561Z,33.37
2018-11-03T20:38:48.011Z,38.73
2018-11-03T20:41:15.423Z,41.47
2018-11-03T20:43:42.831Z,43.47
2018-11-03T20:46:10.257Z,37.87
2018-11-03T20:48:37.675Z,47.17
2018-11-03T20:51:05.116Z,39.47
2018-11-03T20:53:32.628Z,32.83
2018-11-03T20:55:59.974Z,32.30
2018-11-03T20:58:27.416Z,27.87
2018-11-03T21:00:54.888Z,29.00
2018-11-03T21:03:22.294Z,25.23
2018-11-03T21:05:49.806Z,29.43
2018-11-03T21:08:17.298Z,25.13
2018-11-03T21:10:44.720Z,28.87
2018-11-03T21:13:12.193Z,23.57
2018-11-03T21:15:39.664Z,21.77
2018-11-03T21:18:07.026Z,24.57
2018-11-03T21:20:34.496Z,24.93
2018-11-03T21:23:01.908Z,24.10
2018-11-03T21:25:29.412Z,25.63
2018-11-03T21:27:56.777Z,24.57
2018-11-03T21:30:24.192Z,26.17
2018-11-03T21:32:51.731Z,25.13
2018-11-03T21:35:19.017Z,21.80
2018-11-03T21:37:46.429Z,24.10
2018-11-03T21:40:13.971Z,27.03
2018-11-03T21:42:41.369Z,25.47
2018-11-03T21:45:08.800Z,26.83
2018-11-03T21:47:36.246Z,25.63
2018-11-03T21:50:03.638Z,26.37
2018-11-03T21:52:31.177Z,23.60
2018-11-03T21:54:58.565Z,25.50
2018-11-03T21:57:25.983Z,24.63
2018-11-03T21:59:53.492Z,23.63
2018-11-03T22:02:20.891Z,23.10
2018-11-03T22:04:48.341Z,22.90
2018-11-03T22:07:15.749Z,22.20
2018-11-03T22:09:43.148Z,21.40
2018-11-03T22:12:10.579Z,19.47
2018-11-03T22:14:37.976Z,21.17
2018-11-03T22:17:05.390Z,22.87
2018-11-03T22:19:32.802Z,27.57
2018-11-03T22:22:00.202Z,29.43
2018-11-03T22:24:27.626Z,24.63
2018-11-03T22:26:55.016Z,28.23
2018-11-03T22:29:22.438Z,23.10
2018-11-03T22:31:49.843Z,26.23
2018-11-03T22:34:17.310Z,26.87
2018-11-03T22:36:44.733Z,30.67
2018-11-03T22:39:12.159Z,31.43
2018-11-03T22:41:39.585Z,30.83
2018-11-03T22:44:07.005Z,32.17
2018-11-03T22:46:34.406Z,26.73
2018-11-03T22:49:01.828Z,30.47
2018-11-03T22:51:29.315Z,25.53
2018-11-03T22:53:56.662Z,25.17
2018-11-03T22:56:24.106Z,25.87
2018-11-03T22:58:51.555Z,29.17
2018-11-03T23:01:18.975Z,23.90
2018-11-03T23:03:46.380Z,27.67
2018-11-03T23:06:13.856Z,20.67
2018-11-03T23:08:41.258Z,26.70
2018-11-03T23:11:08.691Z,22.83
2018-11-03T23:13:36.086Z,24.57
2018-11-03T23:16:03.493Z,22.93
2018-11-03T23:18:30.923Z,22.43
2018-11-03T23:20:58.376Z,27.00
2018-11-03T23:23:25.768Z,23.83
2018-11-03T23:25:53.185Z,27.23
2018-11-03T23:28:20.601Z,22.47
2018-11-03T23:30:48.006Z,25.63
2018-11-03T23:33:15.444Z,24.27
2018-11-03T23:35:42.858Z,22.70
2018-11-03T23:38:10.266Z,33.27
2018-11-03T23:40:37.703Z,30.83
2018-11-03T23:43:05.120Z,23.00
2018-11-03T23:45:32.505Z,24.40
2018-11-03T23:47:59.923Z,22.67
2018-11-03T23:50:27.366Z,26.80
2018-11-03T23:52:54.841Z,23.73
2018-11-03T23:55:22.264Z,22.33
2018-11-03T23:57:49.668Z,25.43
